createdAt,value
2017-02-06T00:00:19.706Z,99.99
2017-02-06T00:00:47.836Z,99.99
2017-02-06T00:01:15.772Z,99.99
2017-02-06T00:01:43.979Z,99.99
2017-02-06T00:02:12.324Z,99.99
2017-02-06T00:02:40.415Z,99.99
2017-02-06T00:03:08.590Z,99.99
2017-02-06T00:03:36.830Z,99.99
2017-02-06T00:04:04.965Z,99.99
2017-02-06T00:04:33.102Z,99.99
2017-02-06T00:05:01.217Z,99.99
2017-02-06T00:05:29.344Z,99.99
2017-02-06T00:05:57.664Z,99.99
2017-02-06T00:06:25.597Z,99.99
2017-02-06T00:06:53.595Z,99.99
2017-02-06T00:07:21.748Z,99.99
2017-02-06T00:07:49.976Z,99.99
2017-02-06T00:08:18.072Z,99.99
2017-02-06T00:08:46.135Z,99.99
2017-02-06T00:09:14.378Z,99.99
2017-02-06T00:09:42.343Z,99.99
2017-02-06T00:10:10.390Z,99.99
2017-02-06T00:10:38.528Z,99.99
2017-02-06T00:11:06.925Z,99.99
2017-02-06T00:11:35.172Z,99.99
2017-02-06T00:12:03.348Z,99.99
2017-02-06T00:12:31.396Z,99.99
2017-02-06T00:12:59.645Z,99.99
2017-02-06T00:13:27.590Z,99.99
2017-02-06T00:13:55.658Z,99.99
2017-02-06T00:14:23.800Z,99.99
2017-02-06T00:14:52.016Z,99.99
2017-02-06T00:15:19.987Z,99.99
2017-02-06T00:15:48.270Z,99.99
2017-02-06T00:16:16.439Z,99.99
2017-02-06T00:16:44.599Z,99.99
2017-02-06T00:17:12.686Z,99.99
2017-02-06T00:17:40.776Z,99.99
2017-02-06T00:18:08.933Z,99.99
2017-02-06T00:18:37.042Z,99.99
2017-02-06T00:19:05.202Z,99.99
2017-02-06T00:19:33.440Z,99.99
2017-02-06T00:20:01.479Z,99.99
2017-02-06T00:20:29.533Z,99.99
2017-02-06T00:20:57.716Z,99.99
2017-02-06T00:21:25.894Z,99.99
2017-02-06T00:21:53.996Z,99.99
2017-02-06T00:22:22.071Z,99.99
2017-02-06T00:22:50.058Z,99.99
2017-02-06T00:23:18.173Z,99.99
2017-02-06T00:23:46.308Z,99.99
2017-02-06T00:24:14.611Z,99.99
2017-02-06T00:24:42.738Z,99.99
2017-02-06T00:25:10.849Z,99.99
2017-02-06T00:25:38.772Z,99.99
2017-02-06T00:26:07.172Z,99.99
2017-02-06T00:26:35.247Z,99.99
2017-02-06T00:27:03.385Z,99.99
2017-02-06T00:27:31.353Z,99.99
2017-02-06T00:27:59.513Z,99.99
2017-02-06T00:28:27.667Z,99.99
2017-02-06T00:28:55.741Z,99.99
2017-02-06T00:29:23.890Z,99.99
2017-02-06T00:29:51.896Z,99.99
2017-02-06T00:30:19.934Z,99.99
2017-02-06T00:30:48.082Z,99.99
2017-02-06T00:31:16.253Z,99.99
2017-02-06T00:31:44.377Z,99.99
2017-02-06T00:32:12.441Z,99.99
2017-02-06T00:32:40.518Z,99.99
2017-02-06T00:33:08.624Z,99.99
2017-02-06T00:33:36.872Z,99.99
2017-02-06T00:34:05.081Z,99.99
2017-02-06T00:34:33.105Z,99.99
2017-02-06T00:35:01.193Z,99.99
2017-02-06T00:35:29.347Z,99.99
2017-02-06T00:35:57.729Z,99.99
2017-02-06T00:36:25.830Z,99.99
2017-02-06T00:36:54.018Z,99.99
2017-02-06T00:37:22.394Z,99.99
2017-02-06T00:37:50.446Z,99.99
2017-02-06T00:38:18.433Z,99.99
2017-02-06T00:38:46.525Z,99.99
2017-02-06T00:39:14.581Z,99.99
2017-02-06T00:39:42.821Z,99.99
2017-02-06T00:40:11.137Z,99.99
2017-02-06T00:40:39.298Z,99.99
2017-02-06T00:41:07.698Z,99.99
2017-02-06T00:41:35.839Z,99.99
2017-02-06T00:42:03.913Z,99.99
2017-02-06T00:42:32.150Z,99.99
2017-02-06T00:43:00.311Z,99.99
2017-02-06T00:43:28.538Z,99.99
2017-02-06T00:43:56.698Z,99.99
2017-02-06T00:44:24.822Z,99.99
2017-02-06T00:44:52.781Z,99.99
2017-02-06T00:45:21.021Z,99.99
2017-02-06T00:45:49.100Z,99.99
2017-02-06T00:46:17.348Z,99.99
2017-02-06T00:46:45.638Z,99.99
2017-02-06T00:47:13.753Z,99.99
2017-02-06T00:47:41.772Z,99.99
2017-02-06T00:48:10.039Z,99.99
2017-02-06T00:48:38.328Z,99.99
2017-02-06T00:49:06.480Z,99.99
2017-02-06T00:49:34.451Z,99.99
2017-02-06T00:50:02.720Z,99.99
2017-02-06T00:50:30.743Z,99.99
2017-02-06T00:50:59.098Z,99.99
2017-02-06T00:51:27.510Z,99.99
2017-02-06T00:51:55.640Z,99.99
2017-02-06T00:52:23.774Z,99.99
2017-02-06T00:52:51.931Z,99.99
2017-02-06T00:53:20.174Z,99.99
2017-02-06T00:53:48.359Z,99.99
2017-02-06T00:54:16.504Z,99.99
2017-02-06T00:54:44.554Z,99.99
2017-02-06T00:55:12.622Z,99.99
2017-02-06T00:55:40.793Z,99.99
2017-02-06T00:56:08.967Z,99.99
2017-02-06T00:56:37.139Z,99.99
2017-02-06T00:57:05.307Z,99.99
2017-02-06T00:57:33.420Z,99.99
2017-02-06T00:58:01.579Z,99.99
2017-02-06T00:58:29.759Z,99.99
2017-02-06T00:58:57.920Z,99.99
2017-02-06T00:59:26.135Z,99.99
2017-02-06T00:59:54.297Z,99.99
2017-02-06T01:00:22.431Z,99.99
2017-02-06T01:00:50.701Z,99.99
2017-02-06T01:01:18.906Z,99.99
2017-02-06T01:01:47.046Z,99.99
2017-02-06T01:02:15.081Z,99.99
2017-02-06T01:02:43.074Z,99.99
2017-02-06T01:03:11.303Z,99.99
2017-02-06T01:03:39.126Z,99.99
2017-02-06T01:04:07.198Z,99.99
2017-02-06T01:04:35.269Z,99.99
2017-02-06T01:05:03.228Z,99.99
2017-02-06T01:05:31.410Z,99.99
2017-02-06T01:05:59.530Z,99.99
2017-02-06T01:06:27.602Z,99.99
2017-02-06T01:06:55.764Z,99.99
2017-02-06T01:07:23.829Z,99.99
2017-02-06T01:07:52.147Z,99.99
2017-02-06T01:08:20.303Z,99.99
2017-02-06T01:08:48.458Z,99.99
2017-02-06T01:09:16.743Z,99.99
2017-02-06T01:09:44.801Z,99.99
2017-02-06T01:10:13.017Z,99.99
2017-02-06T01:10:41.246Z,99.99
2017-02-06T01:11:09.425Z,99.99
2017-02-06T01:11:37.503Z,99.99
2017-02-06T01:12:05.819Z,99.99
2017-02-06T01:12:34.035Z,99.99
2017-02-06T01:13:02.276Z,99.99
2017-02-06T01:13:30.437Z,99.99
2017-02-06T01:13:58.629Z,99.99
2017-02-06T01:14:26.677Z,99.99
2017-02-06T01:14:54.901Z,99.99
2017-02-06T01:15:22.840Z,99.99
2017-02-06T01:15:50.818Z,99.99
2017-02-06T01:16:18.973Z,99.99
2017-02-06T01:16:47.202Z,99.99
2017-02-06T01:17:15.245Z,99.99
2017-02-06T01:17:43.492Z,99.99
2017-02-06T01:18:11.653Z,99.99
2017-02-06T01:18:39.752Z,99.99
2017-02-06T01:19:07.906Z,99.99
2017-02-06T01:19:36.171Z,99.99
2017-02-06T01:20:04.420Z,99.99
2017-02-06T01:20:32.408Z,99.99
2017-02-06T01:21:00.561Z,99.99
2017-02-06T01:21:28.820Z,99.99
2017-02-06T01:21:56.948Z,99.99
2017-02-06T01:22:24.917Z,99.99
2017-02-06T01:22:52.984Z,99.99
2017-02-06T01:23:20.981Z,99.99
2017-02-06T01:23:49.173Z,99.99
2017-02-06T01:24:17.366Z,99.99
2017-02-06T01:24:45.482Z,99.99
2017-02-06T01:25:13.695Z,99.99
2017-02-06T01:25:41.956Z,99.99
2017-02-06T01:26:09.843Z,99.99
2017-02-06T01:26:37.931Z,99.99
2017-02-06T01:27:05.987Z,99.99
2017-02-06T01:27:34.235Z,99.99
2017-02-06T01:28:02.480Z,99.99
2017-02-06T01:28:30.554Z,99.99
2017-02-06T01:28:58.535Z,99.5
2017-02-06T01:29:26.676Z,99.6
2017-02-06T01:29:54.824Z,99.55
2017-02-06T01:30:23.104Z,99.21
2017-02-06T01:30:51.325Z,98.88
2017-02-06T01:31:19.328Z,99.02
2017-02-06T01:31:47.372Z,98.63
2017-02-06T01:32:15.543Z,98.88
2017-02-06T01:32:43.698Z,98.78
2017-02-06T01:33:11.793Z,98
2017-02-06T01:33:39.750Z,98.3
2017-02-06T01:34:07.963Z,98.3
2017-02-06T01:34:36.058Z,98.2
2017-02-06T01:35:04.241Z,98.2
2017-02-06T01:35:32.419Z,98.3
2017-02-06T01:36:00.415Z,98
2017-02-06T01:36:28.566Z,98.2
2017-02-06T01:36:56.943Z,98.1
2017-02-06T01:37:25.129Z,98.2
2017-02-06T01:37:53.368Z,97.96
2017-02-06T01:38:21.433Z,98
2017-02-06T01:38:49.559Z,98
2017-02-06T01:39:17.808Z,98.44
2017-02-06T01:39:45.970Z,98.2
2017-02-06T01:40:14.270Z,97.81
2017-02-06T01:40:42.414Z,98.1
2017-02-06T01:41:10.552Z,98.1
2017-02-06T01:41:38.629Z,97.72
2017-02-06T01:42:06.761Z,97.42
2017-02-06T01:42:34.979Z,97.91
2017-02-06T01:43:03.025Z,97.52
2017-02-06T01:43:31.276Z,97.72
2017-02-06T01:43:59.389Z,98.1
2017-02-06T01:44:27.438Z,97.91
2017-02-06T01:44:55.459Z,97.42
2017-02-06T01:45:23.598Z,97.52
2017-02-06T01:45:51.703Z,97.52
2017-02-06T01:46:19.675Z,98.2
2017-02-06T01:46:47.760Z,98.39
2017-02-06T01:47:15.901Z,97.81
2017-02-06T01:47:44.054Z,98.2
2017-02-06T01:48:12.246Z,98.39
2017-02-06T01:48:40.351Z,97.81
2017-02-06T01:49:08.575Z,98
2017-02-06T01:49:36.802Z,98
2017-02-06T01:50:05.011Z,97.81
2017-02-06T01:50:33.158Z,98.1
2017-02-06T01:51:01.121Z,98.39
2017-02-06T01:51:29.248Z,98.39
2017-02-06T01:51:57.418Z,97.72
2017-02-06T01:52:25.636Z,98
2017-02-06T01:52:53.898Z,97.81
2017-02-06T01:53:22.183Z,98.1
2017-02-06T01:53:50.261Z,98.39
2017-02-06T01:54:18.473Z,98.2
2017-02-06T01:54:46.715Z,97.81
2017-02-06T01:55:14.970Z,98.1
2017-02-06T01:55:43.081Z,98.39
2017-02-06T01:56:11.222Z,98.1
2017-02-06T01:56:39.134Z,98.2
2017-02-06T01:57:07.522Z,97.72
2017-02-06T01:57:35.533Z,97.81
2017-02-06T01:58:03.651Z,98.2
2017-02-06T01:58:31.859Z,98.3
2017-02-06T01:58:59.790Z,98.2
2017-02-06T01:59:27.827Z,98.1
2017-02-06T01:59:55.980Z,98.2
2017-02-06T02:00:24.192Z,98.39
2017-02-06T02:00:52.493Z,98.3
2017-02-06T02:01:20.803Z,98.3
2017-02-06T02:01:49.170Z,98.1
2017-02-06T02:02:17.250Z,98.3
2017-02-06T02:02:44.999Z,98.49
2017-02-06T02:03:13.221Z,98
2017-02-06T02:03:41.396Z,98.2
2017-02-06T02:04:09.544Z,98
2017-02-06T02:04:37.908Z,97.72
2017-02-06T02:05:05.876Z,98.49
2017-02-06T02:05:34.156Z,98.2
2017-02-06T02:06:02.245Z,98.68
2017-02-06T02:06:30.300Z,98.68
2017-02-06T02:06:58.630Z,98.49
2017-02-06T02:07:26.674Z,98.3
2017-02-06T02:07:54.789Z,97.72
2017-02-06T02:08:22.859Z,98.3
2017-02-06T02:08:50.993Z,98.3
2017-02-06T02:09:19.174Z,98.49
2017-02-06T02:09:47.238Z,98.2
2017-02-06T02:10:15.375Z,98.3
2017-02-06T02:10:43.532Z,98.3
2017-02-06T02:11:11.721Z,98.3
2017-02-06T02:11:39.974Z,98.68
2017-02-06T02:12:08.278Z,98.49
2017-02-06T02:12:36.455Z,98.2
2017-02-06T02:13:04.651Z,98.2
2017-02-06T02:13:32.667Z,98.49
2017-02-06T02:14:00.864Z,98.2
2017-02-06T02:14:29.070Z,98.1
2017-02-06T02:14:57.129Z,98.58
2017-02-06T02:15:25.386Z,98.1
2017-02-06T02:15:53.323Z,98.2
2017-02-06T02:16:21.404Z,98.2
2017-02-06T02:16:49.557Z,98.2
2017-02-06T02:17:17.722Z,98.49
2017-02-06T02:17:46.023Z,98.3
2017-02-06T02:18:14.144Z,97.52
2017-02-06T02:18:42.386Z,97.62
2017-02-06T02:19:10.275Z,96.65
2017-02-06T02:19:38.321Z,97.04
2017-02-06T02:20:06.282Z,97.14
2017-02-06T02:20:34.474Z,96.56
2017-02-06T02:21:02.691Z,96.56
2017-02-06T02:21:30.837Z,96.56
2017-02-06T02:21:58.854Z,96.17
2017-02-06T02:22:27.227Z,96.07
2017-02-06T02:22:55.412Z,96.26
2017-02-06T02:23:23.498Z,95.68
2017-02-06T02:23:51.663Z,96.36
2017-02-06T02:24:19.889Z,96.36
2017-02-06T02:24:48.151Z,95.49
2017-02-06T02:25:16.280Z,95.88
2017-02-06T02:25:44.397Z,95.88
2017-02-06T02:26:12.393Z,95.98
2017-02-06T02:26:40.624Z,95.68
2017-02-06T02:27:08.993Z,95.68
2017-02-06T02:27:37.133Z,95.88
2017-02-06T02:28:05.378Z,95.88
2017-02-06T02:28:33.414Z,95.98
2017-02-06T02:29:01.479Z,95.98
2017-02-06T02:29:29.575Z,95.88
2017-02-06T02:29:57.621Z,95.68
2017-02-06T02:30:25.611Z,95.54
2017-02-06T02:30:53.610Z,95.88
2017-02-06T02:31:21.660Z,95.49
2017-02-06T02:31:49.911Z,95.68
2017-02-06T02:32:18.057Z,95.4
2017-02-06T02:32:46.091Z,95.4
2017-02-06T02:33:14.220Z,95.4
2017-02-06T02:33:42.283Z,95.3
2017-02-06T02:34:10.396Z,95.06
2017-02-06T02:34:38.595Z,95.1
2017-02-06T02:35:06.842Z,95.35
2017-02-06T02:35:35.101Z,95.4
2017-02-06T02:36:03.222Z,95.3
2017-02-06T02:36:31.371Z,95.25
2017-02-06T02:36:59.641Z,95.4
2017-02-06T02:37:28.035Z,95.25
2017-02-06T02:37:56.219Z,95.2
2017-02-06T02:38:24.408Z,94.91
2017-02-06T02:38:52.587Z,95.1
2017-02-06T02:39:20.741Z,95.1
2017-02-06T02:39:48.844Z,95.1
2017-02-06T02:40:16.796Z,95.1
2017-02-06T02:40:44.823Z,95.06
2017-02-06T02:41:13.043Z,95.3
2017-02-06T02:41:41.136Z,95.1
2017-02-06T02:42:09.200Z,94.77
2017-02-06T02:42:37.702Z,94.67
2017-02-06T02:43:06.114Z,94.57
2017-02-06T02:43:34.180Z,94.67
2017-02-06T02:44:02.357Z,95.06
2017-02-06T02:44:30.268Z,95.06
2017-02-06T02:44:58.544Z,95.15
2017-02-06T02:45:26.694Z,95.1
2017-02-06T02:45:54.767Z,95.06
2017-02-06T02:46:22.860Z,95.06
2017-02-06T02:46:51.223Z,95.06
2017-02-06T02:47:19.456Z,95.06
2017-02-06T02:47:47.581Z,94.87
2017-02-06T02:48:15.705Z,94.87
2017-02-06T02:48:43.783Z,95.06
2017-02-06T02:49:12.070Z,95.25
2017-02-06T02:49:40.361Z,94.96
2017-02-06T02:50:08.456Z,94.96
2017-02-06T02:50:36.623Z,95.15
2017-02-06T02:51:04.681Z,94.96
2017-02-06T02:51:32.960Z,95.25
2017-02-06T02:52:01.163Z,95.06
2017-02-06T02:52:29.481Z,95.06
2017-02-06T02:52:57.657Z,94.77
2017-02-06T02:53:25.833Z,95.25
2017-02-06T02:53:54.030Z,95.35
2017-02-06T02:54:22.307Z,94.77
2017-02-06T02:54:50.368Z,95.25
2017-02-06T02:55:18.507Z,94.77
2017-02-06T02:55:46.658Z,94.87
2017-02-06T02:56:14.807Z,95.35
2017-02-06T02:56:43.152Z,95.35
2017-02-06T02:57:11.409Z,95.25
2017-02-06T02:57:39.691Z,95.06
2017-02-06T02:58:07.728Z,95.15
2017-02-06T02:58:35.939Z,94.77
2017-02-06T02:59:04.088Z,94.96
2017-02-06T02:59:32.349Z,95.06
2017-02-06T03:00:00.430Z,95.06
2017-02-06T03:00:28.559Z,94.96
2017-02-06T03:00:56.711Z,95.15
2017-02-06T03:01:24.786Z,94.57
2017-02-06T03:01:52.860Z,94.77
2017-02-06T03:02:20.955Z,94.87
2017-02-06T03:02:49.014Z,94.96
2017-02-06T03:03:17.233Z,94.29
2017-02-06T03:03:45.376Z,94.38
2017-02-06T03:04:13.765Z,93.99
2017-02-06T03:04:41.705Z,94.19
2017-02-06T03:05:09.975Z,94.19
2017-02-06T03:05:38.225Z,93.8
2017-02-06T03:06:06.382Z,94.09
2017-02-06T03:06:34.631Z,93.9
2017-02-06T03:07:02.803Z,93.8
2017-02-06T03:07:30.894Z,93.99
2017-02-06T03:07:58.840Z,94.29
2017-02-06T03:08:27.152Z,94.38
2017-02-06T03:08:55.428Z,93.71
2017-02-06T03:09:23.481Z,93.32
2017-02-06T03:09:51.744Z,93.32
2017-02-06T03:10:19.874Z,93.32
2017-02-06T03:10:48.155Z,93.41
2017-02-06T03:11:16.419Z,93.32
2017-02-06T03:11:44.528Z,93.51
2017-02-06T03:12:12.694Z,93.51
2017-02-06T03:12:40.979Z,93.41
2017-02-06T03:13:09.125Z,93.51
2017-02-06T03:13:37.289Z,93.51
2017-02-06T03:14:05.440Z,93.03
2017-02-06T03:14:33.664Z,93.23
2017-02-06T03:15:01.864Z,93.23
2017-02-06T03:15:29.778Z,93.03
2017-02-06T03:15:58.044Z,93.23
2017-02-06T03:16:26.311Z,92.83
2017-02-06T03:16:54.576Z,93.32
2017-02-06T03:17:22.741Z,93.13
2017-02-06T03:17:50.777Z,92.93
2017-02-06T03:18:18.879Z,92.83
2017-02-06T03:18:47.185Z,92.83
2017-02-06T03:19:15.227Z,92.93
2017-02-06T03:19:43.302Z,92.83
2017-02-06T03:20:11.560Z,92.93
2017-02-06T03:20:39.756Z,92.93
2017-02-06T03:21:07.891Z,93.03
2017-02-06T03:21:35.956Z,92.83
2017-02-06T03:22:04.189Z,92.93
2017-02-06T03:22:32.201Z,92.74
2017-02-06T03:23:00.381Z,92.93
2017-02-06T03:23:28.494Z,93.03
2017-02-06T03:23:56.683Z,92.93
2017-02-06T03:24:24.830Z,92.83
2017-02-06T03:24:52.939Z,92.74
2017-02-06T03:25:21.082Z,92.83
2017-02-06T03:25:49.144Z,92.55
2017-02-06T03:26:17.331Z,92.16
2017-02-06T03:26:45.472Z,92.45
2017-02-06T03:27:13.608Z,92.21
2017-02-06T03:27:41.751Z,92.16
2017-02-06T03:28:10.053Z,92.31
2017-02-06T03:28:38.220Z,92.6
2017-02-06T03:29:06.334Z,92.5
2017-02-06T03:29:34.516Z,92.79
2017-02-06T03:30:02.570Z,92.69
2017-02-06T03:30:30.719Z,92.69
2017-02-06T03:30:58.895Z,92.89
2017-02-06T03:31:27.112Z,92.6
2017-02-06T03:31:55.287Z,92.98
2017-02-06T03:32:23.523Z,92.79
2017-02-06T03:32:51.810Z,93.18
2017-02-06T03:33:19.756Z,93.47
2017-02-06T03:33:47.871Z,93.18
2017-02-06T03:34:16.149Z,93.08
2017-02-06T03:34:44.234Z,93.47
2017-02-06T03:35:12.305Z,93.66
2017-02-06T03:35:40.329Z,93.37
2017-02-06T03:36:08.468Z,93.37
2017-02-06T03:36:36.542Z,93.47
2017-02-06T03:37:04.697Z,93.37
2017-02-06T03:37:32.755Z,94.34
2017-02-06T03:38:01.230Z,94.04
2017-02-06T03:38:29.269Z,93.85
2017-02-06T03:38:57.396Z,93.85
2017-02-06T03:39:25.555Z,93.95
2017-02-06T03:39:53.518Z,93.9
2017-02-06T03:40:21.588Z,93.95
2017-02-06T03:40:49.741Z,93.8
2017-02-06T03:41:17.796Z,94
2017-02-06T03:41:45.958Z,94
2017-02-06T03:42:14.181Z,94.1
2017-02-06T03:42:42.445Z,94.29
2017-02-06T03:43:10.830Z,94.1
2017-02-06T03:43:38.902Z,94.38
2017-02-06T03:44:06.988Z,94.29
2017-02-06T03:44:35.140Z,94.29
2017-02-06T03:45:03.293Z,94.58
2017-02-06T03:45:31.446Z,94.2
2017-02-06T03:45:59.706Z,94.38
2017-02-06T03:46:27.967Z,94.77
2017-02-06T03:46:56.108Z,94.77
2017-02-06T03:47:24.378Z,94.58
2017-02-06T03:47:52.627Z,94.68
2017-02-06T03:48:20.802Z,94.58
2017-02-06T03:48:48.987Z,94.48
2017-02-06T03:49:17.027Z,94.77
2017-02-06T03:49:45.144Z,94.96
2017-02-06T03:50:13.117Z,94.77
2017-02-06T03:50:41.469Z,94.87
2017-02-06T03:51:09.524Z,95.06
2017-02-06T03:51:37.463Z,95.25
2017-02-06T03:52:05.552Z,95.16
2017-02-06T03:52:33.800Z,94.92
2017-02-06T03:53:01.797Z,94.92
2017-02-06T03:54:07.353Z,95.5
2017-02-06T03:54:35.490Z,95.31
2017-02-06T03:55:03.555Z,95.59
2017-02-06T03:55:31.656Z,95.79
2017-02-06T03:55:59.766Z,95.69
2017-02-06T03:56:27.870Z,95.4
2017-02-06T03:56:56.104Z,95.31
2017-02-06T03:57:24.179Z,95.4
2017-02-06T03:57:52.208Z,95.4
2017-02-06T03:58:20.421Z,95.31
2017-02-06T03:58:48.413Z,95.31
2017-02-06T03:59:16.648Z,96.17
2017-02-06T03:59:44.695Z,95.98
2017-02-06T04:00:12.754Z,95.88
2017-02-06T04:00:40.893Z,95.69
2017-02-06T04:01:09.191Z,96.17
2017-02-06T04:01:37.224Z,96.08
2017-02-06T04:02:05.377Z,95.98
2017-02-06T04:02:33.455Z,96.17
2017-02-06T04:03:01.579Z,96.08
2017-02-06T04:03:30.125Z,95.79
2017-02-06T04:03:58.200Z,96.36
2017-02-06T04:04:26.393Z,96.36
2017-02-06T04:04:54.451Z,96.36
2017-02-06T04:05:22.615Z,96.36
2017-02-06T04:05:50.743Z,96.36
2017-02-06T04:06:18.998Z,96.46
2017-02-06T04:06:47.077Z,96.36
2017-02-06T04:07:15.295Z,96.36
2017-02-06T04:07:43.560Z,96.17
2017-02-06T04:08:11.728Z,96.36
2017-02-06T04:08:39.810Z,96.56
2017-02-06T04:09:07.868Z,96.46
2017-02-06T04:09:36.103Z,96.08
2017-02-06T04:10:04.306Z,96.56
2017-02-06T04:10:32.567Z,96.66
2017-02-06T04:11:00.696Z,96.46
2017-02-06T04:11:28.852Z,96.56
2017-02-06T04:11:56.929Z,96.56
2017-02-06T04:12:25.191Z,96.56
2017-02-06T04:12:53.369Z,97.04
2017-02-06T04:13:21.592Z,96.84
2017-02-06T04:13:49.774Z,97.33
2017-02-06T04:14:17.905Z,97.24
2017-02-06T04:14:46.020Z,97.42
2017-02-06T04:15:14.084Z,97.04
2017-02-06T04:15:42.224Z,97.24
2017-02-06T04:16:10.479Z,97.24
2017-02-06T04:16:38.516Z,97.24
2017-02-06T04:17:06.556Z,97.24
2017-02-06T04:17:34.734Z,97.14
2017-02-06T04:18:02.785Z,97.24
2017-02-06T04:18:30.950Z,97.14
2017-02-06T04:18:59.000Z,97.33
2017-02-06T04:19:27.174Z,97.52
2017-02-06T04:19:55.347Z,97.14
2017-02-06T04:20:23.383Z,97.33
2017-02-06T04:20:51.502Z,97.42
2017-02-06T04:21:19.680Z,97.42
2017-02-06T04:21:47.951Z,96.75
2017-02-06T04:22:16.111Z,96.84
2017-02-06T04:22:44.263Z,96.94
2017-02-06T04:23:12.317Z,97.33
2017-02-06T04:23:40.457Z,97.24
2017-02-06T04:24:08.549Z,97.24
2017-02-06T04:24:36.870Z,97.24
2017-02-06T04:25:05.036Z,97.24
2017-02-06T04:25:33.283Z,96.94
2017-02-06T04:26:01.586Z,97.04
2017-02-06T04:26:29.629Z,97.04
2017-02-06T04:26:57.848Z,97.14
2017-02-06T04:27:25.897Z,97.42
2017-02-06T04:27:54.156Z,97.62
2017-02-06T04:28:22.362Z,97.33
2017-02-06T04:28:50.566Z,97.42
2017-02-06T04:29:18.736Z,97.33
2017-02-06T04:29:46.957Z,97.77
2017-02-06T04:30:15.175Z,98.05
2017-02-06T04:30:43.422Z,98.34
2017-02-06T04:31:11.511Z,98.25
2017-02-06T04:31:39.629Z,98.2
2017-02-06T04:32:07.692Z,98.2
2017-02-06T04:32:35.732Z,97.91
2017-02-06T04:33:03.809Z,97.86
2017-02-06T04:33:31.871Z,98.2
2017-02-06T04:34:00.126Z,97.91
2017-02-06T04:34:28.273Z,98.2
2017-02-06T04:34:56.344Z,98
2017-02-06T04:35:24.388Z,98.49
2017-02-06T04:35:52.599Z,98.49
2017-02-06T04:36:20.744Z,98
2017-02-06T04:36:48.896Z,98.2
2017-02-06T04:37:16.998Z,97.91
2017-02-06T04:37:45.155Z,98
2017-02-06T04:38:13.352Z,98
2017-02-06T04:38:41.599Z,97.91
2017-02-06T04:39:09.646Z,98.49
2017-02-06T04:39:37.826Z,98.1
2017-02-06T04:40:06.030Z,98.58
2017-02-06T04:40:34.269Z,98.39
2017-02-06T04:41:02.451Z,97.91
2017-02-06T04:41:30.428Z,98.2
2017-02-06T04:41:58.542Z,98
2017-02-06T04:42:26.674Z,97.72
2017-02-06T04:42:54.713Z,98.2
2017-02-06T04:43:22.968Z,98.1
2017-02-06T04:43:51.425Z,98
2017-02-06T04:44:19.691Z,98.2
2017-02-06T04:44:47.802Z,98.2
2017-02-06T04:45:15.878Z,98.29
2017-02-06T04:45:44.133Z,98.1
2017-02-06T04:46:12.089Z,98.2
2017-02-06T04:46:40.239Z,98.1
2017-02-06T04:47:08.367Z,98
2017-02-06T04:47:36.560Z,98.29
2017-02-06T04:48:04.842Z,98.2
2017-02-06T04:48:33.014Z,98
2017-02-06T04:49:01.306Z,98.29
2017-02-06T04:49:29.283Z,98
2017-02-06T04:49:57.368Z,97.81
2017-02-06T04:50:25.411Z,98.49
2017-02-06T04:50:53.473Z,98.68
2017-02-06T04:51:21.582Z,98.58
2017-02-06T04:51:49.888Z,98.68
2017-02-06T04:52:17.960Z,98.2
2017-02-06T04:52:46.024Z,98.58
2017-02-06T04:53:14.228Z,98.97
2017-02-06T04:53:42.504Z,98.78
2017-02-06T04:54:10.787Z,98.97
2017-02-06T04:54:39.015Z,99.07
2017-02-06T04:55:07.081Z,98.82
2017-02-06T04:55:35.243Z,98.92
2017-02-06T04:56:03.404Z,98.68
2017-02-06T04:56:31.454Z,99.07
2017-02-06T04:56:59.421Z,99.45
2017-02-06T04:57:27.692Z,98.82
2017-02-06T04:57:55.738Z,99.02
2017-02-06T04:58:23.951Z,99.55
2017-02-06T04:58:52.079Z,99.93
2017-02-06T04:59:20.227Z,99.74
2017-02-06T04:59:48.073Z,99.55
2017-02-06T05:00:15.924Z,99.55
2017-02-06T05:00:43.948Z,99.55
2017-02-06T05:01:12.096Z,99.07
2017-02-06T05:01:40.091Z,99.02
2017-02-06T05:02:08.105Z,99.93
2017-02-06T05:02:36.390Z,99.74
2017-02-06T05:03:04.616Z,99.65
2017-02-06T05:03:32.694Z,99.6
2017-02-06T05:04:00.991Z,99.79
2017-02-06T05:04:29.021Z,99.69
2017-02-06T05:04:57.091Z,99.79
2017-02-06T05:05:25.238Z,99.3
2017-02-06T05:05:53.369Z,99.5
2017-02-06T05:06:21.524Z,99.5
2017-02-06T05:06:49.539Z,99.79
2017-02-06T05:07:17.722Z,99.4
2017-02-06T05:07:45.931Z,99.5
2017-02-06T05:08:13.906Z,99.6
2017-02-06T05:08:42.166Z,99.4
2017-02-06T05:09:10.525Z,99.79
2017-02-06T05:09:38.570Z,99.99
2017-02-06T05:10:06.741Z,99.98
2017-02-06T05:10:34.908Z,99.99
2017-02-06T05:11:02.786Z,99.88
2017-02-06T05:11:30.921Z,99.79
2017-02-06T05:11:59.166Z,99.69
2017-02-06T05:12:27.359Z,99.99
2017-02-06T05:12:55.454Z,99.99
2017-02-06T05:13:23.572Z,99.99
2017-02-06T05:13:51.719Z,99.99
2017-02-06T05:14:19.863Z,99.99
2017-02-06T05:14:48.137Z,99.79
2017-02-06T05:15:16.293Z,99.79
2017-02-06T05:15:44.409Z,99.98
2017-02-06T05:16:12.553Z,99.98
2017-02-06T05:16:40.548Z,99.79
2017-02-06T05:17:08.493Z,99.99
2017-02-06T05:17:36.428Z,99.99
2017-02-06T05:18:04.648Z,99.99
2017-02-06T05:18:32.623Z,99.99
2017-02-06T05:19:00.938Z,99.99
2017-02-06T05:19:29.113Z,99.99
2017-02-06T05:19:57.314Z,99.99
2017-02-06T05:20:25.171Z,99.99
2017-02-06T05:20:53.395Z,99.99
2017-02-06T05:21:21.466Z,99.99
2017-02-06T05:21:49.506Z,99.99
2017-02-06T05:22:17.491Z,99.99
2017-02-06T05:22:45.656Z,99.99
2017-02-06T05:23:13.862Z,99.99
2017-02-06T05:23:41.901Z,99.99
2017-02-06T05:24:10.076Z,99.99
2017-02-06T05:24:38.203Z,99.99
2017-02-06T05:25:06.333Z,99.99
2017-02-06T05:25:34.498Z,99.99
2017-02-06T05:26:02.529Z,99.99
2017-02-06T05:26:30.552Z,99.99
2017-02-06T05:26:58.709Z,99.99
2017-02-06T05:27:26.825Z,99.99
2017-02-06T05:27:54.947Z,99.99
2017-02-06T05:28:23.227Z,99.99
2017-02-06T05:28:51.366Z,99.99
2017-02-06T05:29:19.880Z,99.99
2017-02-06T05:29:48.046Z,99.99
2017-02-06T05:30:16.208Z,99.99
2017-02-06T05:30:44.236Z,99.99
2017-02-06T05:31:12.394Z,99.99
2017-02-06T05:31:40.700Z,99.99
2017-02-06T05:32:08.847Z,99.99
2017-02-06T05:32:36.971Z,99.99
2017-02-06T05:33:05.071Z,99.99
2017-02-06T05:33:33.022Z,99.99
2017-02-06T05:34:01.237Z,99.99
2017-02-06T05:34:29.646Z,99.99
2017-02-06T05:34:57.845Z,99.99
2017-02-06T05:35:26.003Z,99.99
2017-02-06T05:35:54.111Z,99.99
2017-02-06T05:36:22.283Z,99.99
2017-02-06T05:36:50.356Z,99.99
2017-02-06T05:37:18.407Z,99.99
2017-02-06T05:37:46.629Z,99.99
2017-02-06T05:38:14.650Z,99.99
2017-02-06T05:38:42.904Z,99.99
2017-02-06T05:39:11.128Z,99.99
2017-02-06T05:39:39.323Z,99.99
2017-02-06T05:40:07.444Z,99.99
2017-02-06T05:40:35.459Z,99.99
2017-02-06T05:41:03.721Z,99.99
2017-02-06T05:41:31.877Z,99.99
2017-02-06T05:42:00.071Z,99.99
2017-02-06T05:42:28.126Z,99.99
2017-02-06T05:42:56.338Z,99.99
2017-02-06T05:43:24.496Z,99.99
2017-02-06T05:43:52.756Z,99.99
2017-02-06T05:44:20.738Z,99.99
2017-02-06T05:44:48.882Z,99.99
2017-02-06T05:45:17.027Z,99.99
2017-02-06T05:45:44.925Z,99.99
2017-02-06T05:46:13.129Z,99.99
2017-02-06T05:46:41.168Z,99.99
2017-02-06T05:47:09.314Z,99.99
2017-02-06T05:47:37.413Z,99.99
2017-02-06T05:48:05.691Z,99.99
2017-02-06T05:48:33.814Z,99.99
2017-02-06T05:49:01.943Z,99.99
2017-02-06T05:49:30.183Z,99.99
2017-02-06T05:49:58.391Z,99.99
2017-02-06T05:50:26.407Z,99.99
2017-02-06T05:50:54.585Z,99.99
2017-02-06T05:51:22.723Z,99.99
2017-02-06T05:51:51.087Z,99.99
2017-02-06T05:52:19.261Z,99.99
2017-02-06T05:52:47.365Z,99.99
2017-02-06T05:53:15.480Z,99.99
2017-02-06T05:53:43.510Z,99.99
2017-02-06T05:54:11.563Z,99.99
2017-02-06T05:54:39.895Z,99.99
2017-02-06T05:55:08.043Z,99.99
2017-02-06T05:55:36.180Z,99.99
2017-02-06T05:56:04.330Z,99.99
2017-02-06T05:56:32.316Z,99.99
2017-02-06T05:57:00.543Z,99.99
2017-02-06T05:57:28.670Z,99.99
2017-02-06T05:57:56.632Z,99.99
2017-02-06T05:58:24.737Z,99.99
2017-02-06T05:58:52.940Z,99.99
2017-02-06T05:59:21.157Z,99.99
2017-02-06T05:59:49.548Z,99.99
2017-02-06T06:00:17.733Z,99.99
2017-02-06T06:00:45.996Z,99.99
2017-02-06T06:01:14.239Z,99.99
2017-02-06T06:01:42.280Z,99.99
2017-02-06T06:02:10.489Z,99.99
2017-02-06T06:02:38.620Z,99.99
2017-02-06T06:03:06.734Z,99.99
2017-02-06T06:03:34.866Z,99.99
2017-02-06T06:04:02.977Z,99.99
2017-02-06T06:04:31.117Z,99.99
2017-02-06T06:04:59.407Z,99.99
2017-02-06T06:05:27.486Z,99.99